Goodman, Wisconsin
Current Conditions -  °F | °C
As of 9:54 AM on Saturday 22 Nov 2014 (Local Time) from KIMT Reporting Station
Haze Haze  
Wind Chill: 28°   Ceiling: 1300
Heat Index: 35°   Visibility: 6mi
Dew Point: 29°   Wind: 9mph
Humidity: 78%   Direction: 220°SW
Pressure: 29.74"   Gusts: NA
Location:  45.63°N, 88.35°W
Report Text: KIMT 221554Z AUTO 22008KT 6SM HZ OVC013 02/M02 A2974 RMK AO2 SLP089 T00171017
Loading
Personal Weather Stations






























Interactive Weather Map New forecast layout! Learn more

10-Day Weather Forecast

Advertisements
Track Severe Weather on mobile